Open Full Screen Window  High Contrast Mode
Wind Gusting 00 knots
03
July 30, 2015 9:55 PM CDT
Weather Information
Wind Direction
  260 °
Wind Speed
  03 kt (3 mph)
Wind Gust
  00 kt (0 mph)
Altimeter
30.12 in
Visibility
10 SM
Temperature
22° C
72° F
Dewpoint
15° C
59° F
Humidity
65%
1hr Rain Fall
00.00 in.
24hr Rain Fall
00.00 in.
Sky Condition
Clear
VFR

METAR KMDS 310255Z AUTO 26003KT 10SM CLR 22/15 A3012 RMK AO2

*Background is not an actual portrayal of the airport.